Weather History for Copper Mountain, CO

Change the Weather History Date:

Saturday, April 26, 2014

  Actual Average (KLXV) Record (KLXV)
Temperature  
Mean Temperature 32 °F -  
Max Temperature 41 °F 47 °F 57 °F (1978)
Min Temperature 24 °F 22 °F 5 °F (1984)
Degree Days  
Heating Degree Days 32 31  
Month to date heating degree days 898  
Since 1 July heating degree days 9881  
Cooling Degree Days 0 0  
Month to date cooling degree days 0  
Year to date cooling degree days 0  
Moisture  
Dew Point 17 °F    
Average Humidity 51    
Maximum Humidity 80    
Minimum Humidity 33    
Precipitation  
Precipitation 0.00 in 0.03 in 0.33 in (1985)
Month to date precipitation 0.93  
Year to date precipitation 3.19  
Sea Level Pressure  
Sea Level Pressure 29.78 in    
Wind  
Wind Speed 21 mph (South)    
Max Wind Speed 39 mph    
Max Gust Speed 51 mph    
Visibility 8 miles    
Events Snow    
T = Trace of Precipitation, MM = Missing Value Source: NWS Daily Summary

Daily Weather History Graph

Daily Weather History Graph

Search for Another Location

Airport:

Trip Planner

Search our weather history database for the weather conditions in past years. The results will help you decide how hot, cold, wet, or windy it might be!

Date:

Astronomy

Apr. 26, 2014 Rise Set
Actual Time 6:11 AM MDT 7:53 PM MDT
Civil Twilight 5:43 AM MDT 8:22 PM MDT
Nautical Twilight 5:08 AM MDT 8:56 PM MDT
Astronomical Twilight 4:31 AM MDT 9:33 PM MDT
Moon 4:37 AM MDT (4/26) 5:25 PM MDT (4/26)
Length of Visible Light 14h 38m
Length of Day
13h 41m
Waning Crescent, 8% of the Moon is Illuminated
Apr 26
Waning Crescent
Apr 29
New
May 6
First Quarter
May 14
Full
May 21
Last Quarter

Hourly Weather History & Observations

Time (MDT) Temp. Windchill Dew Point Humidity Pressure Visibility Wind Dir Wind Speed Gust Speed Precip Events Conditions
12:16 AM 37.4 °F 27.2 °F 10.4 °F 33% 29.99 in 10.0 mi South 19.6 mph 25.3 mph N/A   Scattered Clouds
12:36 AM 37.4 °F 26.1 °F 10.4 °F 33% 29.99 in 10.0 mi South 24.2 mph 29.9 mph N/A   Clear
12:56 AM 37.4 °F 25.9 °F 12.2 °F 36% 29.98 in 10.0 mi South 25.3 mph 31.1 mph N/A   Clear
1:16 AM 37.4 °F 26.1 °F 12.2 °F 36% 29.98 in 10.0 mi South 24.2 mph 28.8 mph N/A   Scattered Clouds
1:36 AM 37.4 °F 26.6 °F 12.2 °F 36% 29.97 in 10.0 mi South 21.9 mph - N/A   Clear
1:56 AM 35.6 °F 24.2 °F 12.2 °F 38% 29.96 in 10.0 mi South 21.9 mph 27.6 mph N/A   Clear
2:16 AM 35.6 °F 24.0 °F 12.2 °F 38% 29.96 in 10.0 mi South 23.0 mph 28.8 mph N/A   Scattered Clouds
2:36 AM 35.6 °F 23.4 °F 12.2 °F 38% 29.95 in 10.0 mi South 25.3 mph - N/A   Clear
2:56 AM 35.6 °F 24.8 °F 14.0 °F 41% 29.94 in 10.0 mi South 19.6 mph 26.5 mph N/A   Clear
3:16 AM 35.6 °F 24.0 °F 14.0 °F 41% 29.94 in 10.0 mi South 23.0 mph - N/A   Clear
3:36 AM 35.6 °F 24.5 °F 14.0 °F 41% 29.93 in 10.0 mi South 20.7 mph - N/A   Clear
3:56 AM 35.6 °F 24.5 °F 14.0 °F 41% 29.93 in 10.0 mi South 20.7 mph 24.2 mph N/A   Clear
4:16 AM 33.8 °F 22.2 °F 14.0 °F 44% 29.92 in 10.0 mi South 20.7 mph - N/A   Clear
4:36 AM 33.8 °F 22.5 °F 14.0 °F 44% 29.91 in 10.0 mi South 19.6 mph 24.2 mph N/A   Clear
4:56 AM 33.8 °F 25.8 °F 14.0 °F 44% 29.89 in 10.0 mi SSW 10.4 mph 17.3 mph N/A   Clear
5:16 AM 33.8 °F 24.3 °F 14.0 °F 44% 29.89 in 10.0 mi South 13.8 mph 20.7 mph N/A   Clear
5:36 AM 33.8 °F 26.4 °F 14.0 °F 44% 29.89 in 10.0 mi SSW 9.2 mph 16.1 mph N/A   Clear
5:56 AM 33.8 °F 25.3 °F 14.0 °F 44% 29.88 in 10.0 mi SSE 11.5 mph 17.3 mph N/A   Clear
6:16 AM 33.8 °F 25.8 °F 15.8 °F 48% 29.87 in 10.0 mi SSE 10.4 mph - N/A   Clear
6:36 AM 33.8 °F 23.2 °F 14.0 °F 44% 29.87 in 10.0 mi SSE 17.3 mph 23.0 mph N/A   Clear
6:56 AM 33.8 °F 22.5 °F 14.0 °F 44% 29.86 in 10.0 mi SSE 19.6 mph 24.2 mph N/A   Clear
7:16 AM 33.8 °F 23.2 °F 14.0 °F 44% 29.84 in 10.0 mi SSE 17.3 mph 23.0 mph N/A   Clear
7:36 AM 33.8 °F 22.2 °F 14.0 °F 44% 29.84 in 10.0 mi SSE 20.7 mph - N/A   Clear
8:16 AM 33.8 °F 21.3 °F 14.0 °F 44% 29.84 in 10.0 mi South 24.2 mph 34.5 mph N/A   Clear
8:36 AM 35.6 °F 24.5 °F 15.8 °F 44% 29.84 in 10.0 mi South 20.7 mph 32.2 mph N/A   Clear
8:56 AM 37.4 °F 25.9 °F 17.6 °F 45% 29.81 in 10.0 mi SSE 25.3 mph 32.2 mph N/A   Clear
9:16 AM 37.4 °F 26.4 °F 17.6 °F 45% 29.82 in 10.0 mi SSE 23.0 mph 38.0 mph N/A   Clear
9:36 AM 37.4 °F 24.8 °F 17.6 °F 45% 29.80 in 10.0 mi SSE 31.1 mph 43.7 mph N/A   Clear
9:56 AM 37.4 °F 25.2 °F 17.6 °F 45% 29.80 in 10.0 mi SSE 28.8 mph 41.4 mph N/A   Clear
10:16 AM 37.4 °F 23.5 °F 17.6 °F 45% 29.78 in 10.0 mi SSE 39.1 mph 50.6 mph N/A   Clear
10:36 AM 37.4 °F 24.2 °F 14.0 °F 38% 29.77 in 10.0 mi SSE 34.5 mph 42.6 mph N/A   Clear
10:56 AM 37.4 °F 26.4 °F 14.0 °F 38% 29.82 in 10.0 mi SSE 23.0 mph 36.8 mph N/A   Scattered Clouds
11:16 AM 37.4 °F 25.4 °F 14.0 °F 38% 29.80 in 10.0 mi SSE 27.6 mph 47.2 mph N/A   Mostly Cloudy
11:36 AM 37.4 °F 28.2 °F 14.0 °F 38% 29.80 in 10.0 mi South 16.1 mph 38.0 mph N/A   Scattered Clouds
11:56 AM 39.2 °F 29.8 °F 14.0 °F 36% 29.79 in 10.0 mi SSE 18.4 mph 35.7 mph N/A   Scattered Clouds
12:16 PM 41.0 °F 31.9 °F 14.0 °F 33% 29.79 in 10.0 mi SSE 19.6 mph 35.7 mph N/A   Scattered Clouds
12:36 PM 41.0 °F 32.2 °F 17.6 °F 39% 29.78 in 10.0 mi SSE 18.4 mph 36.8 mph N/A   Scattered Clouds
12:56 PM 39.2 °F 28.5 °F 15.8 °F 39% 29.77 in 10.0 mi SSE 24.2 mph 33.4 mph N/A   Clear
1:16 PM 37.4 °F 25.2 °F 17.6 °F 45% 29.76 in 10.0 mi South 28.8 mph 36.8 mph N/A   Mostly Cloudy
1:36 PM 37.4 °F 27.5 °F 21.2 °F 52% 29.75 in 10.0 mi SSE 18.4 mph 32.2 mph N/A   Scattered Clouds
1:56 PM 37.4 °F 28.5 °F 19.4 °F 48% 29.75 in 10.0 mi SSE 15.0 mph 26.5 mph N/A   Scattered Clouds
2:16 PM 37.4 °F 26.4 °F 21.2 °F 52% 29.73 in 10.0 mi ESE 23.0 mph - N/A   Mostly Cloudy
2:36 PM 37.4 °F 28.5 °F 21.2 °F 52% 29.74 in 10.0 mi South 15.0 mph 20.7 mph N/A   Scattered Clouds
2:56 PM 37.4 °F 27.2 °F 17.6 °F 45% 29.73 in 10.0 mi SSE 19.6 mph 33.4 mph N/A   Scattered Clouds
3:16 PM 37.4 °F 26.4 °F 21.2 °F 52% 29.72 in 7.0 mi South 23.0 mph 28.8 mph N/A Snow Light Snow
3:36 PM 37.4 °F 27.5 °F 19.4 °F 48% 29.70 in 10.0 mi SSE 18.4 mph 25.3 mph N/A   Scattered Clouds
3:56 PM 37.4 °F 26.9 °F 19.4 °F 48% 29.69 in 7.0 mi ESE 20.7 mph 25.3 mph N/A Snow Light Snow
4:16 PM 37.4 °F 25.9 °F 19.4 °F 48% 29.68 in 10.0 mi SSE 25.3 mph - N/A   Overcast
4:36 PM 35.6 °F 23.4 °F 19.4 °F 52% 29.69 in 10.0 mi SSE 25.3 mph 29.9 mph N/A   Mostly Cloudy
4:56 PM 35.6 °F 24.8 °F 19.4 °F 52% 29.69 in 10.0 mi South 19.6 mph 25.3 mph N/A   Mostly Cloudy
5:16 PM 35.6 °F 24.0 °F 19.4 °F 52% 29.68 in 10.0 mi SSE 23.0 mph - N/A   Mostly Cloudy
5:36 PM 35.6 °F 25.9 °F 19.4 °F 52% 29.67 in 10.0 mi South 16.1 mph 23.0 mph N/A   Mostly Cloudy
5:56 PM 37.4 °F 24.8 °F 17.6 °F 45% 29.66 in 10.0 mi SSE 31.1 mph 38.0 mph N/A   Mostly Cloudy
6:16 PM 35.6 °F 22.1 °F 15.8 °F 44% 29.65 in 10.0 mi SSE 32.2 mph 40.3 mph N/A   Mostly Cloudy
6:36 PM 33.8 °F 19.6 °F 14.0 °F 44% 29.65 in 10.0 mi SSE 32.2 mph 42.6 mph N/A   Overcast
6:56 PM 33.8 °F 21.0 °F 19.4 °F 56% 29.65 in 10.0 mi SSE 25.3 mph 39.1 mph N/A   Overcast
7:16 PM 30.2 °F 15.9 °F 23.0 °F 75% 29.67 in 0.5 mi SSE 26.5 mph 35.7 mph N/A Snow Snow
7:36 PM 30.2 °F 15.9 °F 23.0 °F 75% 29.66 in 10.0 mi SSE 26.5 mph 32.2 mph N/A   Overcast
7:56 PM 30.2 °F 18.1 °F 23.0 °F 75% 29.67 in 7.0 mi South 18.4 mph 28.8 mph N/A Snow Light Snow
8:16 PM 30.2 °F 21.9 °F 23.0 °F 75% 29.69 in 0.8 mi South 9.2 mph 24.2 mph N/A Snow Snow
8:36 PM 28.4 °F 14.1 °F 23.0 °F 80% 29.67 in 0.5 mi West 24.2 mph 33.4 mph N/A Snow Light Snow
8:56 PM 28.4 °F 12.7 °F 23.0 °F 80% 29.67 in 0.2 mi West 29.9 mph 35.7 mph N/A Snow Snow
9:16 PM 28.4 °F 15.1 °F 23.0 °F 80% 29.68 in 0.2 mi West 20.7 mph 24.2 mph N/A Snow Snow
9:36 PM 26.6 °F 13.4 °F 21.2 °F 80% 29.68 in 0.2 mi West 18.4 mph 23.0 mph N/A Snow Snow
9:56 PM 26.6 °F 12.0 °F 21.2 °F 80% 29.67 in 0.2 mi West 23.0 mph 27.6 mph N/A Snow Snow
10:16 PM 26.6 °F 14.7 °F 21.2 °F 80% 29.67 in 0.2 mi West 15.0 mph - N/A Snow Snow
10:36 PM 26.6 °F 21.2 °F 21.2 °F 80% 29.66 in 0.2 mi SW 4.6 mph 11.5 mph N/A   Haze
10:56 PM 26.6 °F 19.1 °F 21.2 °F 80% 29.65 in 7.0 mi South 6.9 mph - N/A   Mostly Cloudy
11:16 PM 26.6 °F 15.2 °F 21.2 °F 80% 29.63 in 0.2 mi West 13.8 mph - N/A   Haze
11:36 PM 24.8 °F 11.1 °F 19.4 °F 80% 29.63 in 0.2 mi West 18.4 mph 26.5 mph N/A   Haze
11:56 PM 24.8 °F 11.5 °F 19.4 °F 80% 29.62 in 0.2 mi West 17.3 mph - N/A   Haze